createdAt,value
2022-12-03T00:07:22.882Z,81.79
2022-12-03T00:23:05.519Z,81.96
2022-12-03T00:38:48.191Z,81.46
2022-12-03T00:54:31.232Z,81.05
2022-12-03T01:10:14.390Z,81.01
2022-12-03T01:25:57.127Z,81.05
2022-12-03T01:41:39.715Z,80.69
2022-12-03T01:57:22.177Z,80.59
2022-12-03T02:13:04.776Z,80.6
2022-12-03T02:28:47.318Z,80.75
2022-12-03T02:44:29.775Z,80.6
2022-12-03T03:00:12.738Z,80.68
2022-12-03T03:15:55.830Z,80.53
2022-12-03T03:31:38.131Z,80.46
2022-12-03T03:47:21.297Z,80.3
2022-12-03T04:03:04.136Z,80.16
2022-12-03T04:18:47.353Z,80.96
2022-12-03T04:34:29.861Z,82.6
2022-12-03T04:50:12.676Z,84.02
2022-12-03T05:05:55.824Z,85.63
2022-12-03T05:21:38.090Z,85.51
2022-12-03T05:37:20.921Z,86.67
2022-12-03T05:53:04.140Z,88.29
2022-12-03T06:08:46.529Z,88.85
2022-12-03T06:24:28.683Z,89.79
2022-12-03T06:40:10.938Z,90.13
2022-12-03T06:55:53.975Z,90.93
2022-12-03T07:11:36.408Z,91.53
2022-12-03T07:27:19.232Z,91.99
2022-12-03T07:43:02.267Z,97.2
2022-12-03T07:58:44.680Z,95.33
2022-12-03T08:14:27.794Z,91.53
2022-12-03T08:30:10.006Z,91.47
2022-12-03T08:45:53.077Z,90.87
2022-12-03T09:01:35.720Z,90.62
2022-12-03T09:17:18.638Z,89.37
2022-12-03T09:33:01.646Z,87.62
2022-12-03T09:48:44.190Z,87.52
2022-12-03T10:04:27.035Z,87.63
2022-12-03T10:20:09.738Z,87.92
2022-12-03T10:35:52.472Z,88.16
2022-12-03T10:51:35.057Z,88.25
2022-12-03T11:07:18.166Z,88.14
2022-12-03T11:23:01.251Z,87.62
2022-12-03T11:38:44.185Z,86.94
2022-12-03T11:54:27.239Z,86.85
2022-12-03T12:10:10.128Z,87.12
2022-12-03T12:25:53.156Z,87.89
2022-12-03T12:41:35.446Z,88.08
2022-12-03T12:57:18.177Z,88.22
2022-12-03T13:13:01.305Z,88.75
2022-12-03T13:28:44.355Z,89.08
2022-12-03T13:44:26.603Z,89.47
2022-12-03T14:15:51.731Z,90.56
2022-12-03T14:31:34.849Z,90.86
2022-12-03T14:47:17.026Z,91.94
2022-12-03T15:02:59.780Z,92.24
2022-12-03T15:18:41.894Z,92.73
2022-12-03T15:34:24.413Z,93.32
2022-12-03T15:50:07.410Z,93.12
2022-12-03T16:05:50.302Z,93.35
2022-12-03T16:21:33.284Z,93.66
2022-12-03T16:37:16.244Z,93.29
2022-12-03T16:52:58.888Z,93.03
2022-12-03T17:08:42.000Z,93.04
2022-12-03T17:24:25.323Z,93.33
2022-12-03T17:25:12.695Z,93.58
2022-12-03T17:40:55.464Z,93.21
2022-12-03T17:56:38.032Z,93.34
2022-12-03T18:12:21.048Z,93.6
2022-12-03T18:28:04.008Z,93.39
2022-12-03T18:43:46.690Z,93.67
2022-12-03T18:59:29.123Z,93.77
2022-12-03T19:15:11.863Z,93.95
2022-12-03T19:30:54.699Z,93.93
2022-12-03T19:46:37.599Z,93.81
2022-12-03T20:02:20.287Z,93.81
2022-12-03T20:18:03.354Z,93.92
2022-12-03T20:33:46.141Z,94.02
2022-12-03T20:49:28.899Z,94.08
2022-12-03T21:05:11.284Z,94.37
2022-12-03T21:20:54.160Z,94.35
2022-12-03T21:36:36.647Z,94.25
2022-12-03T21:52:19.213Z,94.22
2022-12-03T22:08:01.860Z,94.41
2022-12-03T22:23:44.279Z,94.54
2022-12-03T22:39:26.677Z,94.59
2022-12-03T22:55:09.454Z,94.74
2022-12-03T23:10:51.781Z,94.83
2022-12-03T23:26:34.613Z,94.93
2022-12-03T23:42:16.960Z,94.83
2022-12-03T23:57:59.592Z,94.84
